首页
METAR-TAF:

METAR-TAF

机场 :

厄斯特松德-福洛色島, 瑞典

纬度: 63-11N, 经度: 014-30E, 海拔: 376米

当前天气观测

该预报发布于22分钟前的16:50 UTC
风速16节,风向西转西北
温度 -1°C
湿度 80%
气压 984 hPa
能见度10公里或以上
少量云层高于2000英尺

METAR: ESNZ 231650Z 30016KT 9999 FEW020 M01/M04 Q0984

时间: 18:12 (17:12 UTC)

预报

该预报发布于2小时和42分钟前的14:30 UTC
预报有效从23日的 15点(UTC)到 23日的 23点(UTC)
风速15节,风向西,有时为25节阵风
能见度10公里或以上
散云层高于3000英尺
几率 40%
从 23日的 15点(UTC)到 23日的 18点(UTC)
能見度: 2000
多云层高于3000英尺, 积雨云.
小阵雪

TAF: ESNZ 231430Z 2315/2323 28015G25KT 9999 SCT030 PROB40 2315/2318 2000 -SHSN BKN030CB

超过4000个机场的气象观测和天气预报(METAR&TAF报告)。

可查询的气象台以黄色和红色小点在地图上表示。

将鼠标移到小点上方,可查看气象台名称。

然后点击查看天气观测和预报。

如需切换地图:点击带黑十字的绿色按钮放大地图;点击带横线的绿色按钮缩小地图;或者点击绿色箭头查看邻近地区的地图。


METAR-TAF: